MMLT

Loreto International Airport

Airport
ICAO code
MMLT
IATA Code
LTO
Summary
ICAO Region
CARSAM
ICAO Territory
Location

Loreto Municipality, Baja California Sur

Serving
Loreto
Elevation
34 ft
Coordinates
25° 59' 21" N , 111° 20' 54" W
KCC
Metar
MMLT 222340Z 16010KT 10SM SKC 34/18 A2979 RMK SLP088 HZY

Loreto International Airport is an international airport located in the city of Loreto, in Loreto Municipality of Baja California Sur state, northwestern Mexico.

Climatology

Hot Desert Climate (Köppen climate classification BWh)

Runways

Designator Length Width Surface Rops
16/34 2200 45 ASP Yes/Yes

Airport map

Aerial View

SKYbrary Partners:

Safety knowledge contributed by: